createdAt,value
2019-02-16T11:16:01.214Z,14.93
2019-02-16T11:21:42.658Z,15.03
2019-02-16T11:27:12.237Z,14.63
2019-02-16T11:32:57.540Z,14.73
2019-02-16T11:38:45.763Z,14.53
2019-02-16T11:44:19.597Z,15.22
2019-02-16T11:50:09.521Z,16.08
2019-02-16T11:55:52.143Z,17.16
2019-02-16T12:01:27.775Z,16.67
2019-02-16T12:07:23.461Z,17.54
2019-02-16T12:13:09.795Z,17.95
2019-02-16T12:18:52.888Z,17.83
2019-02-16T12:24:29.004Z,17.96
2019-02-16T12:30:07.325Z,17.37
2019-02-16T12:35:38.183Z,17.63
2019-02-16T12:41:26.012Z,18.47
2019-02-16T12:47:12.824Z,17.57
2019-02-16T12:52:54.047Z,20.05
2019-02-16T12:58:27.764Z,17.47
2019-02-16T13:04:05.900Z,18.12
2019-02-16T13:09:48.597Z,18.12
2019-02-16T13:15:22.071Z,19.00
2019-02-16T13:21:04.677Z,19.46
2019-02-16T13:26:50.592Z,18.62
2019-02-16T13:32:45.801Z,18.51
2019-02-16T13:38:21.519Z,18.43
2019-02-16T13:43:53.686Z,18.56
2019-02-16T13:49:24.133Z,19.45
2019-02-16T13:55:11.274Z,18.77
2019-02-16T14:00:43.524Z,19.90
2019-02-16T14:06:26.757Z,18.73
2019-02-16T14:12:08.555Z,19.18
2019-02-16T14:18:01.122Z,18.49
2019-02-16T14:23:25.165Z,18.49
2019-02-16T14:28:49.944Z,18.29
2019-02-16T14:34:13.558Z,18.29
2019-02-16T14:39:38.707Z,18.06
2019-02-16T14:45:02.614Z,18.21
2019-02-16T14:50:26.912Z,18.61
2019-02-16T14:55:54.246Z,17.91
2019-02-16T15:01:17.372Z,18.02
2019-02-16T15:06:41.266Z,17.66
2019-02-16T15:12:06.190Z,17.32
2019-02-16T15:17:30.680Z,17.22
2019-02-16T15:22:54.332Z,16.78
2019-02-16T15:28:18.153Z,16.87
2019-02-16T15:33:42.328Z,16.65
2019-02-16T15:39:07.691Z,16.25
2019-02-16T15:44:32.119Z,15.62
2019-02-16T15:49:56.843Z,15.13
2019-02-16T15:55:20.767Z,14.65
2019-02-16T16:00:45.423Z,14.22
2019-02-16T16:06:10.777Z,13.79
2019-02-16T16:11:48.840Z,13.35
2019-02-16T16:17:20.193Z,12.80
2019-02-16T16:22:57.165Z,12.21
2019-02-16T16:28:35.712Z,11.83
2019-02-16T16:34:22.572Z,11.50
2019-02-16T16:40:12.344Z,11.29
2019-02-16T16:46:10.738Z,10.92
2019-02-16T16:51:44.822Z,10.59
2019-02-16T16:57:14.859Z,10.76
2019-02-16T17:02:48.767Z,10.62
2019-02-16T17:08:35.983Z,10.22
2019-02-16T17:14:10.215Z,10.06
2019-02-16T17:19:56.817Z,9.84
2019-02-16T17:25:39.337Z,9.58
2019-02-16T17:31:25.880Z,9.43
2019-02-16T17:37:15.292Z,9.30
2019-02-16T17:42:51.651Z,9.36
2019-02-16T17:48:28.648Z,9.15
2019-02-16T17:54:10.071Z,9.11
2019-02-16T17:59:39.604Z,8.90
2019-02-16T18:11:45.560Z,8.87
2019-02-16T18:17:28.352Z,8.55
2019-02-16T18:38:20.918Z,6.58
2019-02-16T18:44:02.626Z,6.17
2019-02-16T18:49:37.978Z,5.98
2019-02-16T18:55:11.401Z,5.71
2019-02-16T19:00:45.403Z,5.47
2019-02-16T19:06:24.937Z,5.25
2019-02-16T19:12:07.673Z,5.12
2019-02-16T19:17:40.332Z,4.95
2019-02-16T19:23:19.466Z,5.05
2019-02-16T19:29:06.388Z,5.12
2019-02-16T19:34:41.450Z,4.96
2019-02-16T19:40:17.972Z,4.94
2019-02-16T19:46:09.965Z,5.45
2019-02-16T19:51:58.952Z,5.73
2019-02-16T19:57:40.822Z,5.49
2019-02-16T20:03:20.824Z,4.96
2019-02-16T20:09:12.925Z,4.85
2019-02-16T20:14:41.947Z,4.99
2019-02-16T20:20:22.474Z,5.19
2019-02-16T20:26:03.935Z,5.24
2019-02-16T20:31:46.211Z,5.46
2019-02-16T20:37:28.272Z,5.35
2019-02-16T20:42:58.001Z,5.19
2019-02-16T20:48:37.541Z,5.13
2019-02-16T20:54:27.148Z,5.03
2019-02-16T21:00:09.690Z,4.91
2019-02-16T21:05:51.572Z,4.57
2019-02-16T21:11:23.484Z,4.33
2019-02-16T21:17:06.069Z,4.22
2019-02-16T21:22:59.208Z,4.26
2019-02-16T21:28:40.815Z,4.15
2019-02-16T21:34:09.159Z,3.81
2019-02-16T21:39:49.069Z,3.30
2019-02-16T21:45:47.605Z,3.13
2019-02-16T21:51:30.046Z,2.80
2019-02-16T21:57:02.145Z,2.54
2019-02-16T22:02:42.832Z,2.56
2019-02-16T22:08:16.046Z,2.71
2019-02-16T22:13:39.910Z,2.28
2019-02-16T22:19:03.704Z,1.96
2019-02-16T22:24:28.769Z,1.80
2019-02-16T22:29:52.357Z,1.73
2019-02-16T22:35:16.105Z,2.09
2019-02-16T22:40:40.731Z,2.52
2019-02-16T22:46:04.361Z,3.05
2019-02-16T22:51:28.297Z,2.87
2019-02-16T22:56:52.932Z,2.71
2019-02-16T23:02:18.515Z,2.54
2019-02-16T23:07:43.355Z,2.26
2019-02-16T23:13:08.334Z,2.16
2019-02-16T23:18:33.813Z,1.97
2019-02-16T23:23:58.668Z,1.74
2019-02-16T23:29:24.439Z,1.72
2019-02-16T23:34:48.321Z,1.51
2019-02-16T23:40:13.141Z,1.47
2019-02-16T23:45:37.395Z,1.49
2019-02-16T23:51:02.271Z,1.29
2019-02-16T23:56:26.129Z,1.11
